createdAt,value
2018-10-17T00:00:45.456Z,31.2
2018-10-17T00:01:46.168Z,31.4
2018-10-17T00:02:47.140Z,31.5
2018-10-17T00:03:47.860Z,31.3
2018-10-17T00:04:48.822Z,31.8
2018-10-17T00:05:49.550Z,31.8
2018-10-17T00:06:50.287Z,31.7
2018-10-17T00:07:51.014Z,31.7
2018-10-17T00:08:51.732Z,31.8
2018-10-17T00:09:52.457Z,31.9
2018-10-17T00:10:53.255Z,31.7
2018-10-17T00:11:53.983Z,31.6
2018-10-17T00:12:54.708Z,31.6
2018-10-17T00:13:55.419Z,31.7
2018-10-17T00:14:56.141Z,32.0
2018-10-17T00:15:56.910Z,31.8
2018-10-17T00:16:57.657Z,31.7
2018-10-17T00:17:58.354Z,31.8
2018-10-17T00:18:59.094Z,32.1
2018-10-17T00:19:59.822Z,32.0
2018-10-17T00:21:00.794Z,32.3
2018-10-17T00:22:01.582Z,32.2
2018-10-17T00:23:02.380Z,32.2
2018-10-17T00:24:03.042Z,32.0
2018-10-17T00:25:03.840Z,32.0
2018-10-17T00:26:04.514Z,31.8
2018-10-17T00:27:05.301Z,31.9
2018-10-17T00:28:06.037Z,31.9
2018-10-17T00:29:06.827Z,31.8
2018-10-17T00:30:07.485Z,31.9
2018-10-17T00:31:08.267Z,31.8
2018-10-17T00:32:08.935Z,31.8
2018-10-17T00:33:09.653Z,31.8
2018-10-17T00:34:10.379Z,31.8
2018-10-17T00:35:11.195Z,32.3
2018-10-17T00:36:11.825Z,32.5
2018-10-17T00:37:12.624Z,32.3
2018-10-17T00:38:13.327Z,33.0
2018-10-17T00:39:14.049Z,32.8
2018-10-17T00:40:14.811Z,32.8
2018-10-17T00:41:15.610Z,32.6
2018-10-17T00:42:16.243Z,32.8
2018-10-17T00:43:17.279Z,32.7
2018-10-17T00:44:17.947Z,32.3
2018-10-17T00:45:18.668Z,32.4
2018-10-17T00:46:19.398Z,32.8
2018-10-17T00:47:20.170Z,32.6
2018-10-17T00:48:20.890Z,33.0
2018-10-17T00:49:21.597Z,32.4
2018-10-17T00:50:22.321Z,33.0
2018-10-17T00:51:23.048Z,33.3
2018-10-17T00:52:23.757Z,33.0
2018-10-17T00:53:24.529Z,32.7
2018-10-17T00:54:25.260Z,32.4
2018-10-17T00:55:25.979Z,32.5
2018-10-17T00:56:26.705Z,32.1
2018-10-17T00:57:27.414Z,32.2
2018-10-17T00:58:28.144Z,32.8
2018-10-17T00:59:28.854Z,32.8
2018-10-17T01:00:29.583Z,32.5
2018-10-17T01:01:30.307Z,32.5
2018-10-17T01:02:31.090Z,32.4
2018-10-17T01:03:31.813Z,32.5
2018-10-17T01:04:32.552Z,32.4
2018-10-17T01:05:33.544Z,32.7
2018-10-17T01:06:34.264Z,32.6
2018-10-17T01:07:35.030Z,32.5
2018-10-17T01:08:35.751Z,32.8
2018-10-17T01:09:36.485Z,33.1
2018-10-17T01:10:37.224Z,33.1
2018-10-17T01:11:37.947Z,33.0
2018-10-17T01:12:38.936Z,32.9
2018-10-17T01:13:39.871Z,33.0
2018-10-17T01:14:40.607Z,33.0
2018-10-17T01:15:41.604Z,33.0
2018-10-17T01:16:42.325Z,33.0
2018-10-17T01:17:43.045Z,33.4
2018-10-17T01:18:43.779Z,33.5
2018-10-17T01:19:44.499Z,33.2
2018-10-17T01:20:45.219Z,33.5
2018-10-17T01:21:45.965Z,33.5
2018-10-17T01:22:46.695Z,33.3
2018-10-17T01:23:47.410Z,33.5
2018-10-17T01:24:48.134Z,33.3
2018-10-17T01:25:48.904Z,33.5
2018-10-17T01:26:49.622Z,33.3
2018-10-17T01:27:50.371Z,33.3
2018-10-17T01:28:51.100Z,33.6
2018-10-17T01:29:51.846Z,33.4
2018-10-17T01:30:52.631Z,33.4
2018-10-17T01:31:53.337Z,33.7
2018-10-17T01:32:54.061Z,33.5
2018-10-17T01:33:55.071Z,33.4
2018-10-17T01:34:55.809Z,33.9
2018-10-17T01:35:56.566Z,33.6
2018-10-17T01:36:57.336Z,33.6
2018-10-17T01:37:58.005Z,33.7
2018-10-17T01:38:58.721Z,33.6
2018-10-17T01:39:59.448Z,33.5
2018-10-17T01:41:00.249Z,33.8
2018-10-17T01:42:00.892Z,33.8
2018-10-17T01:43:01.651Z,33.8
2018-10-17T01:44:02.343Z,33.7
2018-10-17T01:45:03.077Z,33.8
2018-10-17T01:46:04.058Z,33.9
2018-10-17T01:47:04.812Z,34.0
2018-10-17T01:48:05.508Z,34.1
2018-10-17T01:49:06.384Z,34.0
2018-10-17T01:50:07.062Z,34.2
2018-10-17T01:51:08.036Z,34.2
2018-10-17T01:52:08.752Z,34.2
2018-10-17T01:53:09.535Z,34.2
2018-10-17T01:54:10.210Z,34.3
2018-10-17T01:55:10.963Z,34.2
2018-10-17T01:56:11.653Z,34.4
2018-10-17T01:57:12.384Z,34.6
2018-10-17T01:58:13.134Z,34.5
2018-10-17T01:59:13.928Z,34.5
2018-10-17T02:00:14.589Z,34.4
2018-10-17T02:01:15.639Z,34.7
2018-10-17T02:02:16.282Z,34.6
2018-10-17T02:03:17.013Z,34.7
2018-10-17T02:04:17.733Z,34.8
2018-10-17T02:05:18.533Z,34.9
2018-10-17T02:06:19.165Z,34.8
2018-10-17T02:07:19.951Z,34.8
2018-10-17T02:08:20.664Z,35.0
2018-10-17T02:09:21.384Z,35.1
2018-10-17T02:10:22.109Z,35.0
2018-10-17T02:11:23.082Z,34.9
2018-10-17T02:12:23.816Z,35.2
2018-10-17T02:13:24.539Z,35.1
2018-10-17T02:14:25.283Z,35.1
2018-10-17T02:15:26.005Z,35.0
2018-10-17T02:16:26.988Z,35.2
2018-10-17T02:17:27.696Z,35.2
2018-10-17T02:18:28.418Z,35.2
2018-10-17T02:19:29.133Z,35.2
2018-10-17T02:20:30.140Z,35.1
2018-10-17T02:21:30.854Z,35.2
2018-10-17T02:22:31.581Z,35.3
2018-10-17T02:23:32.568Z,35.2
2018-10-17T02:24:33.279Z,35.2
2018-10-17T02:25:34.002Z,35.2
2018-10-17T02:26:34.749Z,35.2
2018-10-17T02:27:35.467Z,35.3
2018-10-17T02:28:36.199Z,35.2
2018-10-17T02:29:36.936Z,35.2
2018-10-17T02:30:37.697Z,35.2
2018-10-17T02:31:38.433Z,35.2
2018-10-17T02:32:39.158Z,35.2
2018-10-17T02:33:39.888Z,35.2
2018-10-17T02:34:40.619Z,35.3
2018-10-17T02:35:41.504Z,35.4
2018-10-17T02:36:42.234Z,35.6
2018-10-17T02:37:42.962Z,35.5
2018-10-17T02:38:43.686Z,35.7
2018-10-17T02:39:44.476Z,35.6
2018-10-17T02:40:45.313Z,35.7
2018-10-17T02:41:46.046Z,35.7
2018-10-17T02:42:46.800Z,35.7
2018-10-17T02:43:47.551Z,35.4
2018-10-17T02:44:48.272Z,35.5
2018-10-17T02:45:49.047Z,35.7
2018-10-17T02:46:49.772Z,35.8
2018-10-17T02:47:50.497Z,35.6
2018-10-17T02:48:51.291Z,35.9
2018-10-17T02:49:51.952Z,35.8
2018-10-17T02:50:52.713Z,35.9
2018-10-17T02:51:53.430Z,36.1
2018-10-17T02:52:54.207Z,36.2
2018-10-17T02:53:54.894Z,36.3
2018-10-17T02:54:55.641Z,35.8
2018-10-17T02:55:56.345Z,35.8
2018-10-17T02:56:57.068Z,35.9
2018-10-17T02:57:57.799Z,36.0
2018-10-17T02:58:58.521Z,36.1
2018-10-17T02:59:59.498Z,36.0
2018-10-17T03:01:00.320Z,36.1
2018-10-17T03:02:00.992Z,36.3
2018-10-17T03:03:01.718Z,36.1
2018-10-17T03:04:02.449Z,36.5
2018-10-17T03:05:03.186Z,36.7
2018-10-17T03:06:03.941Z,36.5
2018-10-17T03:07:04.695Z,36.7
2018-10-17T03:08:05.383Z,36.4
2018-10-17T03:09:06.353Z,36.3
2018-10-17T03:10:07.103Z,36.6
2018-10-17T03:11:07.896Z,36.8
2018-10-17T03:12:08.621Z,36.8
2018-10-17T03:13:09.409Z,36.4
2018-10-17T03:14:10.072Z,36.7
2018-10-17T03:15:10.791Z,36.8
2018-10-17T03:16:11.528Z,36.7
2018-10-17T03:17:12.330Z,36.6
2018-10-17T03:18:12.991Z,36.5
2018-10-17T03:19:13.747Z,36.3
2018-10-17T03:20:14.448Z,36.6
2018-10-17T03:21:15.169Z,36.5
2018-10-17T03:22:15.887Z,36.7
2018-10-17T03:23:16.628Z,36.7
2018-10-17T03:24:17.352Z,36.7
2018-10-17T03:25:18.168Z,36.8
2018-10-17T03:26:18.867Z,36.6
2018-10-17T03:27:19.584Z,36.8
2018-10-17T03:28:20.302Z,36.8
2018-10-17T03:29:21.034Z,36.6
2018-10-17T03:30:21.759Z,36.6
2018-10-17T03:31:22.589Z,36.5
2018-10-17T03:32:23.235Z,36.7
2018-10-17T03:33:23.951Z,36.9
2018-10-17T03:34:24.682Z,37.1
2018-10-17T03:35:25.448Z,37.1
2018-10-17T03:36:26.174Z,36.8
2018-10-17T03:37:26.914Z,36.7
2018-10-17T03:38:27.637Z,36.8
2018-10-17T03:39:28.375Z,36.8
2018-10-17T03:40:29.383Z,36.8
2018-10-17T03:41:30.105Z,36.8
2018-10-17T03:42:30.873Z,36.8
2018-10-17T03:43:31.869Z,36.8
2018-10-17T03:44:32.585Z,36.8
2018-10-17T03:45:33.319Z,36.8
2018-10-17T03:46:34.028Z,37.0
2018-10-17T03:47:34.761Z,37.1
2018-10-17T03:48:35.482Z,37.5
2018-10-17T03:49:36.221Z,37.4
2018-10-17T03:50:36.926Z,37.5
2018-10-17T03:51:37.654Z,37.4
2018-10-17T03:52:38.404Z,37.4
2018-10-17T03:53:39.129Z,37.3
2018-10-17T03:54:39.839Z,37.4
2018-10-17T03:55:40.568Z,37.7
2018-10-17T03:56:41.284Z,37.5
2018-10-17T03:57:42.005Z,37.3
2018-10-17T03:58:42.761Z,37.7
2018-10-17T03:59:43.591Z,37.8
2018-10-17T04:00:44.223Z,37.6
2018-10-17T04:01:44.947Z,37.8
2018-10-17T04:02:45.705Z,37.7
2018-10-17T04:03:46.416Z,37.8
2018-10-17T04:04:47.185Z,37.7
2018-10-17T04:05:47.917Z,37.9
2018-10-17T04:06:48.648Z,37.9
2018-10-17T04:07:49.369Z,38.0
2018-10-17T04:08:50.106Z,38.0
2018-10-17T04:09:50.963Z,38.0
2018-10-17T04:10:51.715Z,37.9
2018-10-17T04:11:52.405Z,38.1
2018-10-17T04:12:53.132Z,37.9
2018-10-17T04:13:53.829Z,38.4
2018-10-17T04:14:54.559Z,38.4
2018-10-17T04:15:55.304Z,38.4
2018-10-17T04:16:56.067Z,38.4
2018-10-17T04:17:56.745Z,38.3
2018-10-17T04:18:57.984Z,38.3
2018-10-17T04:19:58.697Z,38.3
2018-10-17T04:20:59.456Z,38.2
2018-10-17T04:22:00.153Z,38.2
2018-10-17T04:23:00.899Z,38.2
2018-10-17T04:24:01.665Z,38.2
2018-10-17T04:25:02.450Z,38.2
2018-10-17T04:26:03.116Z,38.1
2018-10-17T04:27:04.104Z,38.3
2018-10-17T04:28:04.818Z,38.1
2018-10-17T04:29:05.703Z,38.1
2018-10-17T04:30:06.331Z,38.4
2018-10-17T04:31:07.350Z,38.2
2018-10-17T04:32:08.028Z,38.6
2018-10-17T04:33:08.753Z,38.6
2018-10-17T04:34:09.520Z,38.5
2018-10-17T04:35:10.583Z,38.5
2018-10-17T04:36:11.354Z,38.8
2018-10-17T04:37:11.997Z,38.7
2018-10-17T04:38:12.677Z,38.8
2018-10-17T04:39:13.403Z,38.8
2018-10-17T04:40:14.121Z,38.8
2018-10-17T04:41:14.911Z,38.8
2018-10-17T04:42:15.566Z,38.6
2018-10-17T04:43:16.371Z,38.9
2018-10-17T04:44:17.011Z,38.9
2018-10-17T04:45:17.748Z,38.8
2018-10-17T04:46:18.468Z,39.6
2018-10-17T04:47:19.229Z,38.8
2018-10-17T04:48:19.924Z,39.2
2018-10-17T04:49:20.630Z,39.5
2018-10-17T04:50:21.366Z,39.2
2018-10-17T04:51:22.148Z,39.5
2018-10-17T04:52:22.874Z,39.2
2018-10-17T04:53:23.633Z,39.5
2018-10-17T04:54:24.356Z,39.1
2018-10-17T04:55:25.359Z,39.2
2018-10-17T04:56:26.151Z,39.3
2018-10-17T04:57:26.871Z,39.1
2018-10-17T04:58:27.591Z,39.1
2018-10-17T04:59:28.308Z,39.0
2018-10-17T05:00:29.292Z,38.8
2018-10-17T05:01:30.073Z,39.1
2018-10-17T05:02:30.796Z,39.6
2018-10-17T05:03:31.533Z,39.3
2018-10-17T05:04:32.317Z,39.2
2018-10-17T05:05:32.970Z,39.7
2018-10-17T05:06:33.944Z,39.7
2018-10-17T05:07:34.666Z,39.8
2018-10-17T05:08:35.391Z,39.9
2018-10-17T05:09:36.115Z,40.0
2018-10-17T05:10:36.853Z,40.0
2018-10-17T05:11:37.582Z,39.9
2018-10-17T05:12:38.307Z,39.8
2018-10-17T05:13:39.071Z,39.8
2018-10-17T05:14:39.803Z,39.7
2018-10-17T05:15:40.785Z,40.1
2018-10-17T05:16:41.771Z,40.1
2018-10-17T05:17:42.519Z,39.9
2018-10-17T05:18:43.235Z,39.9
2018-10-17T05:19:44.012Z,39.9
2018-10-17T05:20:44.733Z,39.8
2018-10-17T05:21:45.495Z,39.9
2018-10-17T05:22:46.208Z,40.3
2018-10-17T05:23:47.179Z,40.4
2018-10-17T05:24:47.954Z,40.4
2018-10-17T05:25:48.677Z,40.3
2018-10-17T05:26:49.394Z,40.6
2018-10-17T05:27:50.129Z,40.6
2018-10-17T05:28:50.860Z,40.5
2018-10-17T05:29:51.740Z,40.5
2018-10-17T05:30:52.406Z,40.8
2018-10-17T05:31:53.128Z,40.8
2018-10-17T05:32:53.842Z,40.7
2018-10-17T05:33:54.563Z,41.1
2018-10-17T05:34:55.369Z,40.7
2018-10-17T05:35:56.071Z,41.1
2018-10-17T05:36:56.809Z,41.2
2018-10-17T05:37:57.812Z,41.2
2018-10-17T05:38:58.512Z,41.2
2018-10-17T05:39:59.489Z,41.2
2018-10-17T05:41:00.245Z,41.3
2018-10-17T05:42:01.188Z,41.2
2018-10-17T05:43:02.194Z,41.4
2018-10-17T05:44:02.894Z,41.5
2018-10-17T05:45:03.617Z,41.4
2018-10-17T05:46:04.337Z,41.3
2018-10-17T05:47:05.095Z,41.2
2018-10-17T05:48:06.090Z,41.2
2018-10-17T05:49:07.185Z,41.5
2018-10-17T05:50:07.816Z,41.6
2018-10-17T05:51:08.541Z,41.5
2018-10-17T05:52:09.293Z,41.7
2018-10-17T05:53:10.052Z,41.7
2018-10-17T05:54:10.740Z,41.5
2018-10-17T05:55:11.577Z,41.6
2018-10-17T05:56:12.226Z,41.6
2018-10-17T05:57:12.960Z,41.7
2018-10-17T05:58:13.695Z,41.6
2018-10-17T05:59:14.697Z,41.7
2018-10-17T06:00:15.314Z,41.7
2018-10-17T06:01:16.116Z,41.7
2018-10-17T06:02:16.905Z,41.7
2018-10-17T06:03:17.487Z,41.6
2018-10-17T06:04:18.628Z,41.6
2018-10-17T06:05:19.345Z,41.6
2018-10-17T06:06:20.072Z,41.8
2018-10-17T06:07:20.801Z,41.8
2018-10-17T06:08:21.523Z,41.7
2018-10-17T06:09:22.254Z,41.7
2018-10-17T06:10:23.045Z,41.6
2018-10-17T06:11:23.705Z,41.6
2018-10-17T06:12:24.426Z,41.8
2018-10-17T06:13:25.168Z,41.6
2018-10-17T06:14:25.902Z,41.4
2018-10-17T06:15:26.619Z,41.5
2018-10-17T06:16:27.397Z,41.4
2018-10-17T06:17:28.239Z,41.4
2018-10-17T06:18:28.868Z,41.3
2018-10-17T06:19:29.590Z,41.4
2018-10-17T06:20:30.314Z,41.4
2018-10-17T06:21:31.098Z,41.2
2018-10-17T06:22:31.818Z,41.2
2018-10-17T06:23:32.561Z,41.2
2018-10-17T06:24:33.293Z,40.9
2018-10-17T06:25:34.020Z,41.0
2018-10-17T06:26:34.761Z,40.7
2018-10-17T06:27:35.484Z,40.9
2018-10-17T06:28:36.463Z,40.6
2018-10-17T06:29:37.184Z,40.4
2018-10-17T06:30:38.239Z,40.6
2018-10-17T06:31:38.901Z,40.5
2018-10-17T06:32:39.686Z,39.8
2018-10-17T06:33:40.426Z,40.0
2018-10-17T06:34:41.207Z,40.0
2018-10-17T06:35:42.130Z,40.1
2018-10-17T06:36:42.854Z,39.8
2018-10-17T06:37:43.648Z,39.6
2018-10-17T06:38:44.375Z,40.2
2018-10-17T06:39:45.103Z,39.8
2018-10-17T06:40:45.830Z,40.0
2018-10-17T06:41:46.819Z,39.9
2018-10-17T06:42:47.554Z,39.6
2018-10-17T06:43:48.419Z,39.9
2018-10-17T06:44:49.032Z,39.5
2018-10-17T06:45:49.771Z,39.3
2018-10-17T06:46:50.490Z,39.4
2018-10-17T06:47:51.216Z,39.3
2018-10-17T06:48:51.951Z,39.1
2018-10-17T06:49:52.673Z,39.1
2018-10-17T06:50:53.656Z,39.1
2018-10-17T06:51:54.391Z,39.2
2018-10-17T06:52:55.174Z,39.4
2018-10-17T06:53:55.942Z,38.9
2018-10-17T06:54:56.612Z,39.0
2018-10-17T06:55:57.326Z,38.9
2018-10-17T06:56:58.053Z,38.5
2018-10-17T06:57:59.045Z,38.3
2018-10-17T06:58:59.793Z,38.2
2018-10-17T07:00:00.554Z,38.5
2018-10-17T07:01:01.328Z,38.4
2018-10-17T07:02:02.035Z,38.4
2018-10-17T07:03:02.746Z,38.0
2018-10-17T07:04:03.473Z,37.8
2018-10-17T07:05:04.260Z,37.5
2018-10-17T07:06:04.926Z,37.7
2018-10-17T07:07:05.729Z,37.6
2018-10-17T07:08:06.386Z,36.9
2018-10-17T07:09:07.364Z,36.8
2018-10-17T07:10:08.393Z,37.1
2018-10-17T07:11:09.181Z,36.7
2018-10-17T07:12:09.862Z,36.6
2018-10-17T07:13:10.601Z,36.8
2018-10-17T07:14:11.325Z,36.8
2018-10-17T07:15:12.094Z,36.6
2018-10-17T07:16:12.801Z,36.6
2018-10-17T07:17:13.550Z,36.4
2018-10-17T07:18:14.255Z,36.4
2018-10-17T07:19:15.345Z,36.3
2018-10-17T07:20:15.969Z,36.4
2018-10-17T07:21:16.963Z,36.4
2018-10-17T07:22:17.693Z,36.2
2018-10-17T07:23:18.412Z,36.1
2018-10-17T07:24:19.142Z,36.1
2018-10-17T07:25:19.869Z,36.0
2018-10-17T07:26:20.613Z,35.9
2018-10-17T07:27:21.335Z,35.9
2018-10-17T07:28:22.315Z,35.9
2018-10-17T07:29:23.182Z,35.6
2018-10-17T07:30:23.820Z,35.6
2018-10-17T07:31:24.565Z,35.3
2018-10-17T07:32:25.307Z,35.3
2018-10-17T07:33:26.033Z,35.1
2018-10-17T07:34:26.754Z,35.1
2018-10-17T07:35:27.516Z,34.7
2018-10-17T07:36:28.217Z,34.5
2018-10-17T07:37:28.944Z,34.5
2018-10-17T07:38:29.679Z,34.2
2018-10-17T07:39:30.410Z,34.6
2018-10-17T07:40:31.418Z,34.1
2018-10-17T07:41:32.143Z,34.3
2018-10-17T07:42:32.872Z,33.9
2018-10-17T07:43:33.605Z,33.7
2018-10-17T07:44:34.336Z,33.6
2018-10-17T07:45:35.138Z,33.6
2018-10-17T07:46:35.839Z,33.4
2018-10-17T07:47:36.570Z,33.1
2018-10-17T07:48:37.307Z,33.3
2018-10-17T07:49:38.032Z,33.9
2018-10-17T07:50:38.755Z,35.9
2018-10-17T07:51:39.503Z,39.3
2018-10-17T07:52:40.224Z,44.0
2018-10-17T07:53:40.972Z,48.8
2018-10-17T07:54:42.189Z,54.1
2018-10-17T07:55:43.180Z,57.4
2018-10-17T07:56:44.271Z,61.8
2018-10-17T07:57:45.285Z,63.8
2018-10-17T07:58:46.053Z,68.4
2018-10-17T07:59:46.844Z,72.8
2018-10-17T08:00:47.517Z,74.6
2018-10-17T08:01:48.246Z,74.8
2018-10-17T08:02:49.284Z,74.6
2018-10-17T08:03:50.018Z,73.3
2018-10-17T08:04:50.735Z,73.3
2018-10-17T08:05:52.127Z,74.1
2018-10-17T08:06:53.654Z,74.3
2018-10-17T08:07:54.796Z,77.2
2018-10-17T08:08:55.949Z,77.6
2018-10-17T08:09:56.663Z,79.5
2018-10-17T08:10:57.391Z,82.6
2018-10-17T08:11:58.135Z,82.9
2018-10-17T08:12:58.891Z,83.9
2018-10-17T08:13:59.657Z,84.8
2018-10-17T08:15:00.339Z,86.0
2018-10-17T08:16:01.064Z,86.3
2018-10-17T08:17:01.809Z,86.7
2018-10-17T08:18:02.877Z,88.5
2018-10-17T08:19:03.525Z,89.1
2018-10-17T08:20:04.250Z,90.9
2018-10-17T08:21:04.991Z,91.9
2018-10-17T08:22:05.713Z,92.7
2018-10-17T08:23:06.449Z,93.7
2018-10-17T08:24:07.249Z,94.8
2018-10-17T08:25:07.911Z,95.0
2018-10-17T08:26:08.657Z,94.6
2018-10-17T08:27:09.402Z,94.7
2018-10-17T08:28:10.123Z,95.0
2018-10-17T08:29:10.851Z,95.5
2018-10-17T08:30:11.668Z,96.3
2018-10-17T08:31:12.328Z,96.4
2018-10-17T08:32:13.064Z,96.2
2018-10-17T08:33:13.785Z,96.5
2018-10-17T08:34:14.517Z,96.3
2018-10-17T08:35:15.267Z,96.6
2018-10-17T08:36:16.216Z,95.9
2018-10-17T08:37:17.385Z,96.3
2018-10-17T08:38:17.720Z,96.5
2018-10-17T08:39:18.457Z,97.3
2018-10-17T08:40:19.174Z,97.0
2018-10-17T08:41:19.925Z,98.0
2018-10-17T08:42:20.641Z,97.2
2018-10-17T08:43:21.372Z,98.8
2018-10-17T08:44:22.366Z,99.2
2018-10-17T08:45:23.452Z,98.0
2018-10-17T08:46:24.264Z,98.3
2018-10-17T08:47:25.004Z,99.3
2018-10-17T08:48:25.785Z,99.7
2018-10-17T08:49:26.778Z,99.5
2018-10-17T08:50:27.562Z,99.3
2018-10-17T08:51:28.248Z,100.0
2018-10-17T08:52:28.983Z,99.7
2018-10-17T08:53:29.721Z,99.8
2018-10-17T08:54:30.455Z,100.0
2018-10-17T08:55:31.440Z,99.8
2018-10-17T08:56:32.216Z,100.0
2018-10-17T08:57:32.954Z,100.0
2018-10-17T08:58:33.684Z,100.0
2018-10-17T08:59:34.684Z,100.0
2018-10-17T09:00:35.413Z,100.0
2018-10-17T09:01:36.139Z,100.0
2018-10-17T09:02:36.874Z,100.0
2018-10-17T09:03:37.620Z,99.6
2018-10-17T09:04:38.342Z,100.0
2018-10-17T09:05:39.074Z,100.0
2018-10-17T09:06:39.808Z,100.0
2018-10-17T09:07:41.356Z,100.0
2018-10-17T09:08:42.544Z,100.0
2018-10-17T09:09:43.268Z,100.0
2018-10-17T09:10:44.018Z,100.0
2018-10-17T09:11:45.054Z,100.0
2018-10-17T09:12:45.790Z,100.0
2018-10-17T09:13:46.528Z,100.0
2018-10-17T09:14:47.283Z,100.0
2018-10-17T09:15:48.258Z,100.0
2018-10-17T09:16:49.036Z,100.0
2018-10-17T09:17:49.727Z,100.0
2018-10-17T09:18:50.461Z,100.0
2018-10-17T09:19:51.523Z,99.3
2018-10-17T09:20:52.327Z,99.1
2018-10-17T09:21:53.182Z,98.1
2018-10-17T09:22:53.536Z,97.9
2018-10-17T09:23:54.293Z,96.7
2018-10-17T09:24:55.002Z,95.7
2018-10-17T09:25:55.723Z,95.2
2018-10-17T09:26:56.709Z,94.8
2018-10-17T09:27:57.906Z,95.3
2018-10-17T09:28:58.607Z,95.0
2018-10-17T09:29:59.358Z,95.7
2018-10-17T09:31:00.076Z,92.7
2018-10-17T09:32:00.812Z,95.1
2018-10-17T09:33:01.549Z,95.5
2018-10-17T09:34:02.307Z,95.8
2018-10-17T09:35:03.065Z,93.8
2018-10-17T09:36:03.765Z,95.0
2018-10-17T09:37:04.481Z,94.0
2018-10-17T09:38:05.216Z,92.5
2018-10-17T09:39:05.959Z,92.5
2018-10-17T09:40:06.705Z,92.7
2018-10-17T09:41:07.430Z,92.8
2018-10-17T09:42:08.185Z,90.6
2018-10-17T09:43:09.016Z,92.5
2018-10-17T09:44:09.768Z,92.9
2018-10-17T09:45:10.621Z,93.6
2018-10-17T09:46:11.836Z,92.8
2018-10-17T09:47:12.569Z,93.0
2018-10-17T09:48:13.376Z,94.6
2018-10-17T09:49:14.035Z,94.2
2018-10-17T09:50:14.768Z,94.9
2018-10-17T09:51:15.563Z,95.8
2018-10-17T09:52:16.373Z,94.0
2018-10-17T09:53:17.075Z,94.4
2018-10-17T09:54:17.900Z,94.2
2018-10-17T09:55:18.499Z,94.3
2018-10-17T09:56:19.238Z,94.4
2018-10-17T09:57:19.961Z,94.7
2018-10-17T09:58:20.696Z,95.3
2018-10-17T09:59:21.434Z,95.0
2018-10-17T10:00:22.422Z,94.6
2018-10-17T10:01:23.141Z,94.0
2018-10-17T10:02:23.967Z,94.2
2018-10-17T10:03:24.627Z,94.8
2018-10-17T10:04:25.360Z,92.8
2018-10-17T10:05:26.089Z,92.7
2018-10-17T10:06:26.826Z,92.9
2018-10-17T10:07:27.561Z,92.4
2018-10-17T10:08:28.345Z,92.2
2018-10-17T10:09:29.338Z,92.4
2018-10-17T10:10:30.080Z,92.3
2018-10-17T10:11:30.822Z,92.2
2018-10-17T10:12:31.549Z,92.6
2018-10-17T10:13:32.286Z,92.2
2018-10-17T10:14:33.079Z,92.7
2018-10-17T10:15:33.809Z,94.2
2018-10-17T10:16:34.571Z,94.5
2018-10-17T10:17:35.316Z,94.7
2018-10-17T10:18:36.040Z,93.2
2018-10-17T10:19:36.773Z,94.0
2018-10-17T10:20:37.819Z,94.1
2018-10-17T10:21:38.979Z,94.9
2018-10-17T10:22:39.840Z,93.7
2018-10-17T10:23:40.629Z,92.1
2018-10-17T10:24:41.319Z,93.9
2018-10-17T10:25:42.060Z,94.9
2018-10-17T10:26:42.797Z,91.8
2018-10-17T10:27:43.540Z,92.9
2018-10-17T10:28:44.385Z,95.6
2018-10-17T10:29:45.025Z,94.8
2018-10-17T10:30:45.740Z,95.8
2018-10-17T10:31:46.494Z,96.3
2018-10-17T10:32:47.239Z,95.1
2018-10-17T10:33:48.230Z,94.4
2018-10-17T10:34:48.963Z,93.4
2018-10-17T10:35:49.704Z,93.0
2018-10-17T10:36:50.436Z,93.1
2018-10-17T10:37:51.440Z,95.5
2018-10-17T10:38:52.170Z,94.1
2018-10-17T10:39:52.939Z,93.8
2018-10-17T10:40:53.652Z,91.9
2018-10-17T10:41:54.443Z,92.3
2018-10-17T10:42:55.123Z,92.0
2018-10-17T10:43:55.857Z,92.7
2018-10-17T10:44:56.664Z,92.7
2018-10-17T10:45:57.390Z,93.6
2018-10-17T10:46:58.119Z,93.4
2018-10-17T10:47:58.854Z,93.2
2018-10-17T10:48:59.656Z,92.0
2018-10-17T10:50:00.436Z,92.6
2018-10-17T10:51:01.148Z,91.9
2018-10-17T10:52:02.273Z,91.9
2018-10-17T10:53:03.016Z,92.1
2018-10-17T10:54:03.770Z,91.4
2018-10-17T10:55:04.528Z,90.2
2018-10-17T10:56:05.323Z,89.3
2018-10-17T10:57:06.040Z,89.7
2018-10-17T10:58:06.784Z,89.7
2018-10-17T10:59:07.552Z,90.5
2018-10-17T11:00:08.268Z,90.9
2018-10-17T11:01:08.931Z,91.2
2018-10-17T11:02:09.751Z,91.2
2018-10-17T11:03:10.434Z,91.3
2018-10-17T11:04:11.146Z,91.7
2018-10-17T11:05:11.939Z,90.7
2018-10-17T11:06:12.626Z,90.0
2018-10-17T11:07:13.358Z,90.4
2018-10-17T11:08:14.156Z,91.6
2018-10-17T11:09:14.842Z,90.9
2018-10-17T11:10:15.580Z,89.7
2018-10-17T11:11:16.366Z,89.4
2018-10-17T11:12:17.058Z,88.5
2018-10-17T11:13:17.807Z,85.9
2018-10-17T11:14:18.790Z,87.4
2018-10-17T11:15:19.329Z,86.4
2018-10-17T11:16:20.071Z,85.2
2018-10-17T11:17:20.815Z,84.4
2018-10-17T11:18:22.206Z,86.3
2018-10-17T11:19:22.938Z,88.7
2018-10-17T11:20:24.429Z,86.6
2018-10-17T11:21:25.268Z,83.5
2018-10-17T11:22:26.223Z,81.9
2018-10-17T11:23:26.953Z,82.4
2018-10-17T11:24:27.684Z,80.9
2018-10-17T11:25:28.419Z,81.0
2018-10-17T11:26:29.161Z,83.9
2018-10-17T11:27:29.899Z,84.5
2018-10-17T11:28:30.627Z,82.0
2018-10-17T11:29:31.358Z,80.5
2018-10-17T11:30:32.087Z,79.3
2018-10-17T11:31:32.888Z,80.5
2018-10-17T11:32:33.563Z,80.0
2018-10-17T11:33:34.595Z,79.9
2018-10-17T11:34:35.321Z,80.8
2018-10-17T11:35:36.297Z,83.3
2018-10-17T11:36:37.139Z,87.9
2018-10-17T11:37:38.384Z,89.0
2018-10-17T11:38:38.991Z,87.5
2018-10-17T11:39:40.172Z,88.1
2018-10-17T11:40:41.642Z,88.0
2018-10-17T11:41:42.305Z,91.0
2018-10-17T11:42:42.922Z,89.2
2018-10-17T11:43:43.656Z,88.7
2018-10-17T11:44:44.386Z,90.9
2018-10-17T11:45:45.134Z,90.1
2018-10-17T11:46:45.858Z,88.2
2018-10-17T11:47:46.846Z,86.7
2018-10-17T11:48:47.568Z,87.8
2018-10-17T11:49:48.563Z,84.7
2018-10-17T11:50:49.286Z,82.5
2018-10-17T11:51:50.035Z,81.7
2018-10-17T11:52:51.227Z,80.4
2018-10-17T11:53:51.904Z,79.0
2018-10-17T11:54:52.643Z,77.2
2018-10-17T11:55:53.381Z,75.2
2018-10-17T11:56:54.122Z,76.4
2018-10-17T11:57:54.856Z,76.7
2018-10-17T11:58:55.861Z,76.5
2018-10-17T11:59:56.582Z,77.3
2018-10-17T12:00:57.320Z,75.6
2018-10-17T12:01:58.045Z,75.3
2018-10-17T12:02:58.840Z,73.4
2018-10-17T12:03:59.733Z,77.4
2018-10-17T12:05:00.469Z,78.3
2018-10-17T12:06:01.087Z,74.8
2018-10-17T12:07:01.806Z,73.8
2018-10-17T12:08:02.601Z,70.9
2018-10-17T12:09:03.364Z,69.7
2018-10-17T12:10:04.075Z,68.0
2018-10-17T12:11:04.825Z,68.2
2018-10-17T12:12:05.611Z,70.2
2018-10-17T12:13:06.296Z,68.4
2018-10-17T12:14:07.039Z,69.1
2018-10-17T12:15:08.114Z,70.9
2018-10-17T12:16:08.775Z,72.8
2018-10-17T12:17:09.522Z,74.6
2018-10-17T12:18:10.386Z,74.3
2018-10-17T12:19:11.089Z,71.5
2018-10-17T12:20:11.804Z,70.1
2018-10-17T12:21:12.581Z,72.0
2018-10-17T12:22:13.274Z,73.0
2018-10-17T12:23:14.024Z,71.3
2018-10-17T12:24:14.828Z,70.7
2018-10-17T12:25:15.525Z,67.0
2018-10-17T12:26:16.268Z,61.9
2018-10-17T12:27:17.478Z,63.2
2018-10-17T12:28:18.225Z,60.8
2018-10-17T12:29:18.849Z,61.0
2018-10-17T12:30:19.595Z,63.5
2018-10-17T12:31:20.330Z,64.5
2018-10-17T12:32:21.077Z,64.5
2018-10-17T12:33:21.820Z,62.9
2018-10-17T12:34:22.558Z,62.7
2018-10-17T12:35:23.367Z,60.9
2018-10-17T12:36:24.103Z,65.4
2018-10-17T12:37:24.837Z,66.5
2018-10-17T12:38:25.824Z,64.7
2018-10-17T12:39:26.606Z,66.2
2018-10-17T12:40:27.439Z,65.5
2018-10-17T12:41:28.352Z,60.7
2018-10-17T12:42:29.033Z,61.1
2018-10-17T12:43:29.763Z,61.7
2018-10-17T12:44:30.908Z,61.9
2018-10-17T12:45:31.661Z,66.2
2018-10-17T12:46:32.390Z,66.8
2018-10-17T12:47:33.125Z,66.3
2018-10-17T12:48:33.855Z,65.0
2018-10-17T12:49:34.661Z,66.6
2018-10-17T12:50:35.388Z,70.7
2018-10-17T12:51:36.125Z,68.8
2018-10-17T12:52:36.885Z,64.3
2018-10-17T12:53:37.620Z,64.8
2018-10-17T12:54:38.376Z,65.4
2018-10-17T12:55:39.366Z,69.8
2018-10-17T12:56:40.097Z,71.7
2018-10-17T12:57:40.835Z,72.0
2018-10-17T12:58:41.581Z,69.9
2018-10-17T12:59:42.316Z,67.5
2018-10-17T13:00:43.046Z,66.8
2018-10-17T13:01:43.783Z,66.5
2018-10-17T13:02:44.528Z,64.9
2018-10-17T13:03:45.258Z,66.4
2018-10-17T13:04:45.991Z,64.8
2018-10-17T13:05:46.734Z,64.9
2018-10-17T13:06:47.461Z,67.1
2018-10-17T13:07:48.199Z,70.5
2018-10-17T13:08:48.942Z,69.9
2018-10-17T13:09:49.725Z,69.5
2018-10-17T13:10:50.477Z,69.9
2018-10-17T13:11:51.194Z,69.7
2018-10-17T13:12:51.938Z,69.8
2018-10-17T13:13:52.673Z,70.0
2018-10-17T13:14:53.501Z,68.7
2018-10-17T13:15:54.222Z,68.9
2018-10-17T13:16:54.987Z,72.2
2018-10-17T13:17:55.686Z,73.6
2018-10-17T13:18:56.461Z,73.8
2018-10-17T13:19:57.164Z,72.6
2018-10-17T13:20:57.895Z,69.9
2018-10-17T13:21:58.941Z,69.6
2018-10-17T13:22:59.723Z,66.7
2018-10-17T13:24:00.409Z,66.6
2018-10-17T13:25:01.197Z,67.7
2018-10-17T13:26:01.887Z,68.6
2018-10-17T13:27:02.674Z,70.5
2018-10-17T13:28:03.416Z,72.6